Sun Prairie, WI (53590)

11:21 PM CDT on August 29, 2015 (GMT -0500)
Northside School | | Change Station
CLOSE
Current Station
Personal Weather Station
Location: Sun Prairie, WI
Elevation: 1007 ft
Nearby Weather Stations

Elev 1007 ft 43.19 °N, 89.22 °W | Updated 1 second ago

Overcast
Overcast
65.0 °F
Feels Like 65.0 °F
N
0.0
Wind Variable Wind from NE
Gusts 0.0 mph

Today
High -- | Low -- °F
--% Chance of Precip.
Yesterday
High -- | Low -- °F
Precip. -- in
6:17 AM 7:37 PM
Full, 100% visible
Pressure 30.04 in
Visibility 8.0 miles
Clouds Overcast 2700 ft
Dew Point 64 °F
Humidity 95%
Rainfall 0.76 in
Snow Depth Not available.
UV 0 out of 12
Pollen 4.60 out of 12
Air Quality Not available.
Flu Activity Not available.
METAR KMSN 300353Z 00000KT 8SM OVC027 18/17 A3005 RMK AO2 SLP173 LAST AUGMENTED OBS OF THE DAY UNTIL 1045Z T01830167
Pressure 30.04 in
Visibility 8.0 miles
Clouds Overcast 2700 ft
Dew Point 64 °F
Humidity 95%
Rainfall 0.76 in
Snow Depth Not available.
UV 0 out of 12
Pollen 4.60 out of 12
Air Quality Not available.
Flu Activity Not available.
METAR KMSN 300353Z 00000KT 8SM OVC027 18/17 A3005 RMK AO2 SLP173 LAST AUGMENTED OBS OF THE DAY UNTIL 1045Z T01830167

10-Day Weather Forecast

×

Almanac

Astronomy

Aug. 29, 2015 Rise Set
Actual Time
Civil Twilight
Nautical Twilight
Astronomical Twilight
Moon
Length of Visible Light
Length of Day
Tomorrow will be .
, % of the Moon is Illuminated

Today's Extremes

State Highs State Lows

Community

WunderPhotos

Upload Photos

1,850,881 photos uploaded!

WunderBlogs® & News

Nearby

Air Quality

  Air Quality AQ Index Pollutant
Not available.

Snow Depth

Station Depth Elevation

Earthquake Activity

City Distance Mag. Time & Date
Minimum magnitude displayed is 2.5.

Coastal Water Temperatures

Place Temperature

Stations

Nearby Weather Stations

Station Location Temp. Windchill Dew Point Humidity Wind Precip. Elev Updated Type